createdAt,value
2023-05-01T00:01:23.494Z,7.43
2023-05-01T00:11:25.709Z,8.13
2023-05-01T00:21:28.690Z,7.53
2023-05-01T00:31:33.052Z,8.77
2023-05-01T00:41:38.138Z,8.70
2023-05-01T00:51:40.587Z,8.80
2023-05-01T01:01:44.023Z,8.43
2023-05-01T01:12:27.738Z,10.37
2023-05-01T01:22:34.895Z,6.23
2023-05-01T01:32:58.554Z,7.83
2023-05-01T01:43:08.921Z,8.33
2023-05-01T01:53:12.444Z,7.73
2023-05-01T02:03:20.466Z,6.43
2023-05-01T02:13:26.991Z,10.93
2023-05-01T02:23:33.783Z,4.17
2023-05-01T02:33:40.919Z,7.10
2023-05-01T02:43:48.104Z,8.77
2023-05-01T02:53:50.815Z,8.20
2023-05-01T03:03:57.181Z,8.80
2023-05-01T03:14:02.083Z,7.27
2023-05-01T03:24:07.418Z,11.30
2023-05-01T03:34:10.247Z,10.77
2023-05-01T03:44:12.571Z,12.17
2023-05-01T03:54:22.435Z,12.17
2023-05-01T04:04:34.302Z,7.40
2023-05-01T04:14:40.588Z,6.93
2023-05-01T04:24:43.278Z,7.43
2023-05-01T04:34:47.317Z,8.67
2023-05-01T04:44:55.133Z,7.00
2023-05-01T04:54:58.180Z,7.77
2023-05-01T05:05:06.119Z,9.32
2023-05-01T05:15:09.053Z,6.13
2023-05-01T05:25:16.043Z,5.82
2023-05-01T05:35:23.113Z,3.00
2023-05-01T05:45:27.705Z,5.60
2023-05-01T05:55:30.074Z,5.78
2023-05-01T06:05:38.067Z,5.07
2023-05-01T06:15:45.932Z,8.07
2023-05-01T06:25:49.480Z,5.35
2023-05-01T06:35:57.941Z,5.30
2023-05-01T06:46:05.662Z,3.40
2023-05-01T06:56:11.280Z,5.03
2023-05-01T07:06:16.224Z,4.80
2023-05-01T07:16:25.710Z,3.20
2023-05-01T07:26:32.632Z,4.75
2023-05-01T07:36:38.053Z,5.88
2023-05-01T07:46:42.027Z,6.95
2023-05-01T07:56:49.689Z,5.22
2023-05-01T08:06:57.905Z,5.07
2023-05-01T08:17:07.581Z,4.07
2023-05-01T08:27:11.013Z,5.35
2023-05-01T08:37:20.062Z,6.10
2023-05-01T08:47:23.210Z,5.43
2023-05-01T08:57:35.809Z,4.90
2023-05-01T09:07:41.668Z,8.55
2023-05-01T09:17:46.154Z,6.38
2023-05-01T09:27:52.035Z,2.92
2023-05-01T09:37:58.084Z,4.40
2023-05-01T09:48:11.872Z,5.72
2023-05-01T09:58:29.692Z,4.07
2023-05-01T10:08:50.749Z,7.32
2023-05-01T10:18:58.494Z,6.82
2023-05-01T10:29:06.301Z,3.38
2023-05-01T10:39:36.504Z,5.13
2023-05-01T10:50:07.699Z,4.72
2023-05-01T11:00:10.716Z,3.05
2023-05-01T11:10:33.654Z,3.67
2023-05-01T11:20:56.212Z,4.07
2023-05-01T11:31:00.895Z,3.45
2023-05-01T11:41:05.782Z,2.40
2023-05-01T11:51:14.511Z,2.60
2023-05-01T12:01:18.166Z,1.83
2023-05-01T12:11:31.672Z,4.55
2023-05-01T12:21:36.221Z,6.07
2023-05-01T12:31:50.088Z,2.97
2023-05-01T12:42:00.319Z,3.75
2023-05-01T12:52:09.932Z,3.53
2023-05-01T13:02:17.287Z,4.20
2023-05-01T13:12:22.250Z,4.53
2023-05-01T13:22:43.291Z,3.58
2023-05-01T13:32:51.140Z,2.17
2023-05-01T13:43:00.434Z,1.90
2023-05-01T13:53:09.503Z,3.50
2023-05-01T14:03:16.290Z,2.20
2023-05-01T14:13:21.822Z,3.25
2023-05-01T14:23:28.127Z,3.97
2023-05-01T14:33:50.555Z,3.90
2023-05-01T14:43:55.348Z,4.15
2023-05-01T14:54:01.248Z,3.55
2023-05-01T15:04:08.310Z,2.65
2023-05-01T15:14:10.817Z,4.55
2023-05-01T15:24:18.389Z,2.92
2023-05-01T15:34:21.714Z,3.28
2023-05-01T15:44:24.158Z,3.47
2023-05-01T15:54:28.104Z,4.60
2023-05-01T16:04:31.288Z,6.55
2023-05-01T16:14:44.722Z,3.45
2023-05-01T16:24:48.835Z,7.95
2023-05-01T16:34:51.148Z,4.90
2023-05-01T16:44:54.275Z,7.07
2023-05-01T16:55:02.302Z,3.35
2023-05-01T17:05:06.579Z,4.75
2023-05-01T17:15:09.780Z,4.18
2023-05-01T17:25:14.637Z,4.50
2023-05-01T17:35:17.117Z,7.13
2023-05-01T17:45:21.074Z,4.38
2023-05-01T17:55:39.275Z,4.80
2023-05-01T18:05:46.671Z,6.60
2023-05-01T18:15:57.488Z,4.35
2023-05-01T18:26:02.518Z,7.25
2023-05-01T18:36:11.492Z,4.40
2023-05-01T18:46:13.834Z,7.75
2023-05-01T18:56:17.133Z,5.63
2023-05-01T19:06:21.854Z,5.13
2023-05-01T19:16:27.958Z,7.35
2023-05-01T19:26:39.634Z,4.30
2023-05-01T19:36:45.036Z,9.63
2023-05-01T19:46:55.382Z,7.07
2023-05-01T19:56:58.886Z,5.40
2023-05-01T20:07:04.909Z,8.85
2023-05-01T20:17:10.542Z,8.65
2023-05-01T20:27:17.827Z,6.90
2023-05-01T20:37:22.530Z,8.70
2023-05-01T20:47:28.270Z,5.80
2023-05-01T20:57:35.614Z,5.85
2023-05-01T21:07:40.260Z,6.80
2023-05-01T21:17:44.892Z,9.02
2023-05-01T21:27:52.678Z,5.65
2023-05-01T21:37:59.240Z,7.72
2023-05-01T21:48:01.725Z,9.07
2023-05-01T21:58:04.454Z,8.85
2023-05-01T22:08:06.995Z,6.88
2023-05-01T22:18:09.452Z,9.45
2023-05-01T22:28:11.565Z,9.70
2023-05-01T22:38:16.121Z,9.38
2023-05-01T22:48:19.443Z,10.10
2023-05-01T22:58:24.180Z,8.07
2023-05-01T23:08:29.081Z,7.80
2023-05-01T23:18:33.372Z,11.15
2023-05-01T23:28:46.727Z,9.53
2023-05-01T23:38:56.420Z,10.68
2023-05-01T23:49:03.931Z,10.18
2023-05-01T23:59:12.691Z,7.35
